Time;durP1;ratioP1;P1;durP2;ratioP2;P2;SDS_P1;SDS_P2;PMS_P1;PMS_P2;Temp;Humidity;BMP_temperature;BMP_pressure;BME280_temperature;BME280_humidity;BME280_pressure;Samples;Min_cycle;Max_cycle;Signal;HPM_P1;HPM_P2
2022/07/02 00:01:19;;;;;;;3.70;1.77;;;13.90;99.90;;;;;;4859246;29;20084;-37
2022/07/02 00:03:50;;;;;;;5.30;2.08;;;13.90;99.90;;;;;;4858594;29;20197;-37
2022/07/02 00:06:20;;;;;;;5.35;1.60;;;13.90;99.90;;;;;;4849089;29;20050;-38
2022/07/02 00:08:46;;;;;;;4.55;1.60;;;13.90;99.90;;;;;;4837341;29;20165;-37
2022/07/02 00:11:16;;;;;;;4.32;1.83;;;13.90;99.90;;;;;;4859136;29;20132;-37
2022/07/02 00:13:43;;;;;;;5.60;1.85;;;13.90;99.90;;;;;;4858445;29;20531;-37
2022/07/02 00:16:12;;;;;;;4.90;1.75;;;13.80;99.90;;;;;;4843647;29;20190;-37
2022/07/02 00:18:38;;;;;;;4.38;1.75;;;13.80;99.90;;;;;;4840381;29;20052;-37
2022/07/02 00:21:04;;;;;;;4.97;2.00;;;13.80;99.90;;;;;;4859261;29;20049;-37
2022/07/02 00:23:30;;;;;;;4.72;1.92;;;13.70;99.90;;;;;;4854430;29;20050;-37
2022/07/02 00:26:02;;;;;;;4.82;2.13;;;13.70;99.90;;;;;;4846754;29;20050;-37
2022/07/02 00:28:30;;;;;;;2.45;1.85;;;13.70;99.90;;;;;;4842923;29;20045;-37
2022/07/02 00:30:56;;;;;;;4.68;1.85;;;13.70;99.90;;;;;;4859297;29;20041;-37
2022/07/02 00:33:24;;;;;;;3.63;2.05;;;13.70;99.90;;;;;;4858091;29;20054;-37
2022/07/02 00:35:50;;;;;;;6.25;2.10;;;13.60;99.90;;;;;;4851177;29;20054;-37
2022/07/02 00:38:16;;;;;;;5.38;2.03;;;13.60;99.90;;;;;;4843663;29;20053;-37
2022/07/02 00:40:43;;;;;;;6.15;2.08;;;13.60;99.90;;;;;;4858659;29;20071;-37
2022/07/02 00:43:09;;;;;;;4.00;2.10;;;13.60;99.90;;;;;;4839630;29;20050;-37
2022/07/02 00:45:38;;;;;;;6.47;2.08;;;13.50;99.90;;;;;;4851967;29;20049;-38
2022/07/02 00:48:04;;;;;;;3.30;1.70;;;13.50;99.90;;;;;;4842081;29;20064;-38
2022/07/02 00:50:30;;;;;;;5.00;2.42;;;13.50;99.90;;;;;;4857222;29;20057;-37
2022/07/02 00:52:56;;;;;;;4.15;1.98;;;13.40;99.90;;;;;;4857684;29;20057;-37
2022/07/02 00:55:22;;;;;;;3.63;2.00;;;13.40;99.90;;;;;;4858437;29;20041;-37
2022/07/02 00:57:48;;;;;;;6.40;2.35;;;13.40;99.90;;;;;;4842870;29;20479;-37
2022/07/02 01:00:20;;;;;;;2.92;1.67;;;13.40;99.90;;;;;;4858290;29;20096;-37
2022/07/02 01:02:47;;;;;;;5.88;2.20;;;13.40;99.90;;;;;;4849282;29;20054;-37
2022/07/02 01:05:15;;;;;;;5.25;2.55;;;13.40;99.90;;;;;;4842263;29;20058;-37
2022/07/02 01:10:16;;;;;;;7.22;2.25;;;13.30;99.90;;;;;;4833204;29;21085;-37
2022/07/02 01:10:43;;;;;;;5.40;2.15;;;13.30;99.90;;;;;;4846017;29;20061;-37
2022/07/02 01:13:11;;;;;;;4.53;2.10;;;13.30;99.90;;;;;;4843521;29;20064;-37
2022/07/02 01:15:38;;;;;;;4.82;2.10;;;13.30;99.90;;;;;;4844792;29;20502;-37
2022/07/02 01:18:04;;;;;;;5.72;2.47;;;13.30;99.90;;;;;;4811412;29;20092;-37
2022/07/02 01:20:30;;;;;;;5.00;2.40;;;13.30;99.90;;;;;;4839205;29;20081;-37
2022/07/02 01:22:55;;;;;;;5.40;2.35;;;13.30;99.90;;;;;;4853803;29;20060;-37
2022/07/02 01:25:22;;;;;;;5.07;2.33;;;13.20;99.90;;;;;;4857977;29;20045;-37
2022/07/02 01:27:48;;;;;;;4.05;2.45;;;13.20;99.90;;;;;;4835971;29;20058;-37
2022/07/02 01:30:14;;;;;;;5.15;2.50;;;13.20;99.90;;;;;;4838278;29;20053;-37
2022/07/02 01:32:40;;;;;;;4.88;2.47;;;13.20;99.90;;;;;;4838656;29;20488;-37
2022/07/02 01:35:08;;;;;;;5.55;2.55;;;13.20;99.90;;;;;;4844140;29;20045;-37
2022/07/02 01:37:37;;;;;;;5.82;2.78;;;13.20;99.90;;;;;;4836151;29;20058;-37
2022/07/02 01:40:03;;;;;;;4.97;2.45;;;13.20;99.90;;;;;;4839508;29;20137;-36
2022/07/02 01:42:29;;;;;;;4.88;2.60;;;13.20;99.90;;;;;;4842200;29;20042;-37
2022/07/02 01:44:55;;;;;;;5.97;2.60;;;13.10;99.90;;;;;;4854977;29;20045;-36
2022/07/02 01:47:21;;;;;;;6.18;2.63;;;13.10;99.90;;;;;;4824270;29;20076;-37
2022/07/02 01:49:47;;;;;;;6.55;2.40;;;13.10;99.90;;;;;;4856938;29;20045;-37
2022/07/02 01:52:15;;;;;;;7.95;2.55;;;13.10;99.90;;;;;;4843190;29;20041;-37
2022/07/02 01:54:40;;;;;;;4.68;2.60;;;13.10;99.90;;;;;;4839044;29;20106;-37
2022/07/02 01:57:06;;;;;;;4.32;2.72;;;13.10;99.90;;;;;;4837271;29;20041;-37
2022/07/02 01:59:33;;;;;;;8.43;2.90;;;13.00;99.90;;;;;;4857244;29;20042;-37
2022/07/02 02:01:59;;;;;;;6.00;2.72;;;13.00;99.90;;;;;;4857470;29;20088;-37
2022/07/02 02:04:24;;;;;;;7.75;2.92;;;13.00;99.90;;;;;;4856553;29;20099;-37
2022/07/02 02:06:50;;;;;;;7.05;3.30;;;13.00;99.90;;;;;;4827562;29;20155;-37
2022/07/02 02:09:16;;;;;;;4.22;2.80;;;13.00;99.90;;;;;;4837924;29;20418;-37
2022/07/02 02:11:41;;;;;;;5.75;2.90;;;13.00;99.90;;;;;;4838762;29;20081;-37
2022/07/02 02:14:07;;;;;;;4.68;2.70;;;12.90;99.90;;;;;;4847055;29;20128;-37
2022/07/02 02:16:33;;;;;;;4.28;3.00;;;13.00;99.90;;;;;;4829111;29;20077;-37
2022/07/02 02:19:00;;;;;;;6.90;3.35;;;12.90;99.90;;;;;;4845973;29;20085;-37
2022/07/02 02:21:27;;;;;;;7.15;2.97;;;12.90;99.90;;;;;;4854054;29;20049;-37
2022/07/02 02:23:54;;;;;;;7.15;3.03;;;12.90;99.90;;;;;;4856649;29;20054;-38
2022/07/02 02:26:20;;;;;;;6.60;3.30;;;12.90;99.90;;;;;;4830706;29;20421;-38
2022/07/02 02:28:46;;;;;;;8.00;3.08;;;12.90;99.90;;;;;;4852050;29;20057;-38
2022/07/02 02:31:11;;;;;;;6.85;3.50;;;12.80;99.90;;;;;;4844410;29;20041;-38
2022/07/02 02:33:37;;;;;;;8.02;3.53;;;12.80;99.90;;;;;;4856311;29;20084;-37
2022/07/02 02:36:03;;;;;;;4.82;3.30;;;12.80;99.90;;;;;;4849702;29;20049;-38
2022/07/02 02:38:29;;;;;;;7.75;3.38;;;12.80;99.90;;;;;;4842348;29;20053;-38
2022/07/02 02:40:55;;;;;;;7.25;3.28;;;12.80;99.90;;;;;;4856834;29;20462;-37
2022/07/02 02:43:21;;;;;;;12.15;3.95;;;12.70;99.90;;;;;;4839853;29;20049;-37
2022/07/02 02:45:47;;;;;;;9.02;3.80;;;12.70;99.90;;;;;;4854260;29;20439;-37
2022/07/02 02:48:13;;;;;;;6.10;3.47;;;12.70;99.90;;;;;;4840743;29;20185;-36
2022/07/02 02:50:39;;;;;;;5.95;3.03;;;12.70;99.90;;;;;;4855202;29;20136;-37
2022/07/02 02:53:04;;;;;;;5.53;3.50;;;12.70;99.90;;;;;;4837908;29;20057;-37
2022/07/02 02:55:30;;;;;;;7.40;3.67;;;12.60;99.90;;;;;;4828074;29;20058;-37
2022/07/02 02:57:56;;;;;;;6.75;3.08;;;12.60;99.90;;;;;;4840769;29;20053;-37
2022/07/02 03:00:21;;;;;;;8.93;3.47;;;12.60;99.90;;;;;;4858462;29;20049;-37
2022/07/02 03:02:47;;;;;;;7.13;3.10;;;12.60;99.90;;;;;;4859337;29;20061;-37
2022/07/02 03:05:13;;;;;;;6.28;3.50;;;12.60;99.90;;;;;;4857498;29;20037;-37
2022/07/02 03:07:39;;;;;;;5.75;3.15;;;12.60;99.90;;;;;;4826313;29;20050;-37
2022/07/02 03:10:05;;;;;;;9.43;3.38;;;12.50;99.90;;;;;;4841665;29;20064;-37
2022/07/02 03:12:31;;;;;;;6.10;3.20;;;12.50;99.90;;;;;;4841538;29;20410;-36
2022/07/02 03:14:56;;;;;;;5.47;3.10;;;12.50;99.90;;;;;;4847444;29;20046;-37
2022/07/02 03:17:22;;;;;;;6.85;3.30;;;12.50;99.90;;;;;;4824852;29;20545;-36
2022/07/02 03:19:48;;;;;;;5.60;3.20;;;12.50;99.90;;;;;;4841573;29;20566;-37
2022/07/02 03:22:13;;;;;;;6.72;3.13;;;12.50;99.90;;;;;;4841131;29;20123;-37
2022/07/02 03:24:39;;;;;;;8.50;3.50;;;12.50;99.90;;;;;;4852227;29;20088;-37
2022/07/02 03:27:05;;;;;;;7.13;3.13;;;12.50;99.90;;;;;;4828241;29;20417;-37
2022/07/02 03:29:30;;;;;;;6.50;3.28;;;12.50;99.90;;;;;;4840603;29;20053;-37
2022/07/02 03:31:56;;;;;;;10.15;3.00;;;12.50;99.90;;;;;;4841422;29;20041;-37
2022/07/02 03:34:22;;;;;;;6.03;3.00;;;12.50;99.90;;;;;;4855162;29;20471;-37
2022/07/02 03:36:47;;;;;;;9.80;3.45;;;12.50;99.90;;;;;;4838320;29;20405;-37
2022/07/02 03:39:13;;;;;;;6.05;3.40;;;12.50;99.90;;;;;;4859166;29;20102;-37
2022/07/02 03:41:39;;;;;;;9.00;3.58;;;12.50;99.90;;;;;;4859630;29;20045;-37
2022/07/02 03:44:04;;;;;;;9.70;3.70;;;12.50;99.90;;;;;;4856489;29;20066;-37
2022/07/02 03:46:30;;;;;;;6.45;3.47;;;12.40;99.90;;;;;;4847014;29;20042;-38
2022/07/02 03:48:56;;;;;;;8.38;3.30;;;12.50;99.90;;;;;;4856465;29;20144;-37
2022/07/02 03:51:22;;;;;;;8.70;3.70;;;12.50;99.90;;;;;;4852104;29;20046;-37
2022/07/02 03:53:48;;;;;;;7.45;3.80;;;12.50;99.90;;;;;;4853860;29;20088;-36
2022/07/02 03:56:14;;;;;;;9.43;3.38;;;12.50;99.90;;;;;;4830997;29;20679;-37
2022/07/02 03:58:40;;;;;;;10.02;3.60;;;12.50;99.90;;;;;;4834228;29;20070;-36
2022/07/02 04:01:07;;;;;;;7.78;3.38;;;12.50;99.90;;;;;;4848624;29;20057;-37
2022/07/02 04:03:33;;;;;;;5.85;3.53;;;12.50;99.90;;;;;;4840046;29;20053;-37
2022/07/02 04:06:00;;;;;;;5.78;3.40;;;12.50;99.90;;;;;;4850441;29;20517;-37
2022/07/02 04:08:25;;;;;;;8.10;3.53;;;12.50;99.90;;;;;;4837382;29;20428;-37
2022/07/02 04:10:51;;;;;;;11.95;3.65;;;12.50;99.90;;;;;;4839346;29;20121;-37
2022/07/02 04:13:18;;;;;;;9.52;3.53;;;12.40;99.90;;;;;;4845511;29;20136;-37
2022/07/02 04:15:44;;;;;;;7.60;3.78;;;12.60;99.90;;;;;;4850374;29;20141;-37
2022/07/02 04:18:09;;;;;;;10.05;3.72;;;12.60;99.90;;;;;;4823950;29;20066;-37
2022/07/02 04:20:35;;;;;;;10.50;3.55;;;12.60;99.90;;;;;;4849355;29;20109;-36
2022/07/02 04:23:01;;;;;;;7.13;3.53;;;12.60;99.90;;;;;;4857223;29;20045;-37
2022/07/02 04:25:26;;;;;;;8.90;3.90;;;12.70;99.90;;;;;;4858409;29;20132;-36
2022/07/02 04:27:52;;;;;;;6.13;3.58;;;12.70;99.90;;;;;;4839360;29;20053;-37
2022/07/02 04:30:18;;;;;;;7.70;3.53;;;12.80;99.90;;;;;;4856413;29;20053;-37
2022/07/02 04:32:43;;;;;;;7.80;3.38;;;12.80;99.90;;;;;;4856954;29;20461;-37
2022/07/02 04:35:09;;;;;;;8.30;3.80;;;12.80;99.90;;;;;;4837276;29;20042;-37
2022/07/02 04:37:35;;;;;;;7.63;3.80;;;12.80;99.90;;;;;;4840185;29;20065;-37
2022/07/02 04:40:00;;;;;;;7.68;3.55;;;12.90;99.90;;;;;;4858670;29;20056;-37
2022/07/02 04:42:26;;;;;;;8.10;3.78;;;12.90;99.90;;;;;;4838060;29;20124;-37
2022/07/02 04:44:52;;;;;;;6.57;3.75;;;13.00;99.90;;;;;;4843803;29;20045;-37
2022/07/02 04:47:17;;;;;;;11.85;4.20;;;13.00;99.90;;;;;;4827463;29;20474;-37
2022/07/02 04:49:43;;;;;;;10.65;4.40;;;13.10;99.90;;;;;;4853320;29;20567;-36
2022/07/02 04:52:09;;;;;;;9.05;3.75;;;13.10;99.90;;;;;;4850310;29;20422;-38
2022/07/02 04:54:34;;;;;;;9.23;4.13;;;13.10;99.90;;;;;;4853800;29;20057;-37
2022/07/02 04:57:00;;;;;;;8.75;4.10;;;13.20;99.90;;;;;;4843119;29;20474;-37
2022/07/02 04:59:26;;;;;;;7.30;3.80;;;13.20;99.90;;;;;;4857430;29;20105;-38
2022/07/02 05:01:51;;;;;;;7.68;3.65;;;13.30;99.90;;;;;;4858380;29;20045;-38
2022/07/02 05:04:18;;;;;;;7.93;3.70;;;13.40;99.90;;;;;;4857562;29;20092;-38
2022/07/02 05:06:44;;;;;;;12.50;3.88;;;13.50;99.90;;;;;;4843213;29;20045;-39
2022/07/02 05:09:10;;;;;;;6.72;3.50;;;13.60;99.90;;;;;;4857424;29;20172;-38
2022/07/02 05:11:38;;;;;;;8.48;4.10;;;13.70;99.90;;;;;;4855865;29;20056;-38
2022/07/02 05:14:04;;;;;;;7.22;3.53;;;13.80;99.90;;;;;;4847639;29;20050;-38
2022/07/02 05:16:30;;;;;;;8.77;4.25;;;14.00;99.90;;;;;;4836665;29;20120;-38
2022/07/02 05:18:56;;;;;;;7.68;4.20;;;14.10;99.90;;;;;;4855481;29;20145;-38
2022/07/02 05:21:21;;;;;;;7.70;4.05;;;14.20;99.90;;;;;;4843209;29;20401;-38
2022/07/02 05:23:47;;;;;;;8.20;4.78;;;14.30;99.90;;;;;;4843582;29;20049;-38
2022/07/02 05:26:13;;;;;;;8.05;4.68;;;14.40;99.90;;;;;;4833732;29;20054;-40
2022/07/02 05:28:38;;;;;;;8.63;4.75;;;14.50;99.90;;;;;;4833006;29;20100;-39
2022/07/02 05:31:04;;;;;;;9.70;4.45;;;14.60;99.90;;;;;;4825935;29;20061;-39
2022/07/02 05:33:30;;;;;;;8.57;4.60;;;14.70;99.90;;;;;;4866236;29;20084;-39
2022/07/02 05:35:55;;;;;;;7.78;4.40;;;14.90;99.90;;;;;;4855772;29;20696;-38
2022/07/02 05:38:21;;;;;;;10.23;4.78;;;14.90;99.90;;;;;;4842685;29;20045;-40
2022/07/02 05:40:47;;;;;;;11.13;4.57;;;15.00;99.90;;;;;;4842039;29;20553;-39
2022/07/02 05:43:13;;;;;;;12.38;4.78;;;15.10;99.90;;;;;;4846545;29;20073;-39
2022/07/02 05:45:38;;;;;;;7.18;4.55;;;15.20;99.90;;;;;;4829402;29;20387;-39
2022/07/02 05:48:04;;;;;;;7.90;4.75;;;15.40;99.90;;;;;;4830287;29;20100;-39
2022/07/02 05:50:31;;;;;;;8.57;4.60;;;15.40;99.90;;;;;;4856754;29;20090;-39
2022/07/02 05:52:56;;;;;;;9.48;4.43;;;15.50;99.90;;;;;;4838092;29;20113;-39
2022/07/02 05:55:22;;;;;;;10.70;4.93;;;15.60;99.90;;;;;;4839134;29;20178;-39
2022/07/02 05:57:48;;;;;;;6.57;4.55;;;15.60;99.90;;;;;;4823372;29;20182;-39
2022/07/02 06:00:14;;;;;;;6.88;4.10;;;15.70;99.90;;;;;;4852941;29;20410;-39
2022/07/02 06:02:40;;;;;;;9.27;4.38;;;15.80;99.90;;;;;;4840261;29;20513;-39
2022/07/02 06:07:51;;;;;;;7.00;4.35;;;15.90;99.90;;;;;;4841423;29;20088;-39
2022/07/02 06:10:19;;;;;;;8.32;4.13;;;16.00;99.90;;;;;;4840885;29;20056;-39
2022/07/02 06:12:47;;;;;;;8.45;4.53;;;16.20;99.90;;;;;;4840180;29;20057;-39
2022/07/02 06:15:13;;;;;;;7.25;3.65;;;16.30;99.90;;;;;;4854901;29;20057;-39
2022/07/02 06:17:39;;;;;;;8.10;4.43;;;16.30;99.90;;;;;;4834322;29;20046;-39
2022/07/02 06:20:05;;;;;;;7.97;3.55;;;16.40;99.90;;;;;;4851668;29;20487;-39
2022/07/02 06:22:31;;;;;;;5.43;3.53;;;16.50;99.90;;;;;;4838378;29;20045;-39
2022/07/02 06:24:57;;;;;;;11.40;3.95;;;16.60;99.90;;;;;;4847770;29;20050;-39
2022/07/02 06:27:22;;;;;;;8.25;3.45;;;16.60;99.90;;;;;;4823204;29;20054;-39
2022/07/02 06:29:48;;;;;;;5.65;3.20;;;16.70;99.90;;;;;;4844841;29;20128;-39
2022/07/02 06:32:16;;;;;;;7.70;3.80;;;16.70;99.90;;;;;;4844284;29;20493;-38
2022/07/02 06:34:42;;;;;;;7.85;3.40;;;16.80;99.90;;;;;;4844608;29;20053;-39
2022/07/02 06:37:08;;;;;;;7.70;2.97;;;16.90;99.90;;;;;;4823265;29;20198;-39
2022/07/02 06:39:34;;;;;;;8.02;3.25;;;17.00;99.90;;;;;;4844275;29;20517;-39
2022/07/02 06:44:44;;;;;;;8.43;2.95;;;17.10;99.90;;;;;;4856982;29;20064;-39
2022/07/02 06:47:10;;;;;;;7.13;3.10;;;17.20;99.90;;;;;;4833090;29;20054;-39
2022/07/02 06:49:35;;;;;;;5.18;2.80;;;17.30;99.90;;;;;;4860184;29;20057;-40
2022/07/02 06:52:01;;;;;;;5.47;2.70;;;17.30;99.90;;;;;;4848299;29;20129;-39
2022/07/02 06:54:27;;;;;;;8.18;3.08;;;17.40;99.90;;;;;;4840238;29;20417;-38
2022/07/02 06:56:52;;;;;;;7.43;2.45;;;17.40;99.90;;;;;;4827417;29;20049;-39
2022/07/02 06:59:18;;;;;;;7.57;2.83;;;17.50;99.90;;;;;;4859927;29;20666;-38
2022/07/02 07:01:43;;;;;;;8.15;2.92;;;17.40;99.90;;;;;;4833411;29;20603;-40
2022/07/02 07:04:09;;;;;;;6.78;2.60;;;17.50;99.90;;;;;;4848113;29;20650;-39
2022/07/02 07:06:35;;;;;;;7.95;2.47;;;17.60;99.90;;;;;;4816524;29;20074;-39
2022/07/02 07:09:01;;;;;;;8.45;2.58;;;17.60;99.90;;;;;;4832392;29;20057;-39
2022/07/02 07:11:27;;;;;;;6.53;2.17;;;17.70;99.90;;;;;;4854981;29;20611;-38
2022/07/02 07:13:52;;;;;;;4.13;2.25;;;17.70;99.90;;;;;;4842640;29;20470;-39
2022/07/02 07:16:18;;;;;;;8.45;2.55;;;17.70;99.90;;;;;;4833242;29;20145;-38
2022/07/02 07:21:19;;;;;;;8.10;2.28;;;17.90;99.90;;;;;;4850959;29;20417;-38
2022/07/02 07:23:44;;;;;;;3.22;1.90;;;17.90;99.90;;;;;;4847548;29;20064;-39
2022/07/02 07:26:10;;;;;;;3.08;1.73;;;17.90;99.90;;;;;;4834215;29;20041;-41
2022/07/02 07:28:37;;;;;;;4.80;2.22;;;17.90;99.90;;;;;;4833155;29;20079;-37
2022/07/02 07:31:02;;;;;;;4.65;1.95;;;18.00;99.90;;;;;;4840893;29;20050;-38
2022/07/02 07:33:28;;;;;;;8.75;2.50;;;18.10;99.90;;;;;;4839381;29;20413;-37
2022/07/02 07:35:54;;;;;;;4.85;2.00;;;18.10;99.90;;;;;;4844908;29;20053;-38
2022/07/02 07:38:19;;;;;;;7.72;1.90;;;18.20;99.90;;;;;;4836973;29;20033;-38
2022/07/02 07:40:45;;;;;;;5.75;1.90;;;18.20;99.90;;;;;;4848273;29;20061;-38
2022/07/02 07:43:10;;;;;;;5.68;1.60;;;18.20;99.90;;;;;;4849670;29;20051;-37
2022/07/02 07:45:36;;;;;;;4.32;1.55;;;18.20;99.90;;;;;;4854216;29;20054;-38
2022/07/02 07:48:02;;;;;;;2.47;1.50;;;18.30;99.90;;;;;;4838201;29;20413;-38
2022/07/02 07:50:28;;;;;;;7.35;1.20;;;18.30;99.90;;;;;;4851683;29;20174;-38
2022/07/02 07:52:54;;;;;;;4.10;1.17;;;18.30;99.90;;;;;;4851980;29;20140;-37
2022/07/02 07:55:19;;;;;;;3.05;0.85;;;18.30;99.90;;;;;;4850394;29;20049;-37
2022/07/02 07:57:45;;;;;;;4.60;1.10;;;18.30;99.90;;;;;;4823415;29;20050;-37
2022/07/02 08:00:11;;;;;;;8.23;1.08;;;18.30;99.90;;;;;;4847939;29;20049;-37
2022/07/02 08:02:37;;;;;;;5.35;0.98;;;18.30;99.90;;;;;;4824337;29;20399;-38
2022/07/02 08:05:03;;;;;;;4.55;1.00;;;18.30;99.90;;;;;;4844631;29;20060;-37
2022/07/02 08:07:28;;;;;;;4.63;1.30;;;18.30;99.90;;;;;;4824599;29;20046;-37
2022/07/02 08:09:55;;;;;;;4.38;0.98;;;18.40;99.90;;;;;;4842686;29;20049;-38
2022/07/02 08:12:21;;;;;;;4.45;0.70;;;18.40;99.90;;;;;;4845479;29;20125;-37
2022/07/02 08:14:47;;;;;;;3.90;0.93;;;18.40;99.90;;;;;;4840859;29;20164;-37
2022/07/02 08:17:13;;;;;;;2.72;0.63;;;18.40;99.90;;;;;;4837897;29;20092;-38
2022/07/02 08:19:39;;;;;;;3.38;0.50;;;18.50;99.90;;;;;;4856614;29;20152;-37
2022/07/02 08:22:04;;;;;;;1.58;0.47;;;18.50;99.90;;;;;;4833070;29;20141;-38
2022/07/02 08:24:30;;;;;;;2.45;0.50;;;18.40;99.90;;;;;;4849025;29;20418;-38
2022/07/02 08:26:56;;;;;;;1.40;0.35;;;18.50;99.90;;;;;;4825190;29;20059;-37
2022/07/02 08:29:21;;;;;;;2.80;0.85;;;18.50;99.90;;;;;;4839639;29;20153;-38
2022/07/02 08:31:47;;;;;;;3.45;0.60;;;18.50;99.90;;;;;;4847759;29;20112;-38
2022/07/02 08:34:13;;;;;;;1.95;0.57;;;18.50;99.90;;;;;;4851852;29;21967;-37
2022/07/02 08:36:39;;;;;;;1.27;0.43;;;18.60;99.90;;;;;;4840465;29;20122;-38
2022/07/02 08:39:04;;;;;;;1.85;0.63;;;18.50;99.90;;;;;;4850922;29;20059;-37
2022/07/02 08:41:31;;;;;;;2.03;0.40;;;18.50;99.90;;;;;;4838132;29;20106;-37
2022/07/02 08:43:59;;;;;;;1.40;0.32;;;18.50;99.90;;;;;;4843564;29;20049;-37
2022/07/02 08:46:27;;;;;;;2.78;0.55;;;18.50;99.90;;;;;;4821870;29;20684;-37
2022/07/02 08:48:53;;;;;;;2.25;0.40;;;18.60;99.90;;;;;;4847364;29;20057;-37
2022/07/02 08:51:23;;;;;;;2.40;0.50;;;18.60;99.90;;;;;;4838287;29;20113;-37
2022/07/02 08:53:49;;;;;;;2.30;0.60;;;18.70;99.90;;;;;;4851930;29;20054;-37
2022/07/02 08:56:16;;;;;;;3.83;0.65;;;18.60;99.90;;;;;;4842976;29;20450;-37
2022/07/02 08:58:44;;;;;;;2.28;0.40;;;18.70;99.90;;;;;;4850151;29;20053;-37
2022/07/02 09:01:11;;;;;;;2.00;0.30;;;18.80;99.90;;;;;;4837733;29;20413;-37
2022/07/02 09:03:40;;;;;;;2.63;0.50;;;18.80;99.90;;;;;;4854828;29;20041;-37
2022/07/02 09:06:07;;;;;;;2.08;0.50;;;18.80;99.90;;;;;;4853437;29;20057;-39
2022/07/02 09:08:34;;;;;;;1.63;0.38;;;18.90;99.90;;;;;;4837000;29;20120;-37
2022/07/02 09:11:02;;;;;;;1.15;0.30;;;18.90;99.90;;;;;;4838480;29;20050;-37
2022/07/02 09:13:27;;;;;;;4.78;0.50;;;18.90;99.90;;;;;;4854582;29;20075;-37
2022/07/02 09:15:55;;;;;;;2.03;0.13;;;18.90;99.90;;;;;;4857540;29;20073;-37
2022/07/02 09:18:22;;;;;;;1.55;0.40;;;19.00;99.90;;;;;;4839190;29;20045;-37
2022/07/02 09:20:47;;;;;;;2.92;0.30;;;19.00;99.90;;;;;;4855831;29;20049;-37
2022/07/02 09:23:22;;;;;;;5.45;0.40;;;19.00;99.90;;;;;;4837853;29;20045;-37
2022/07/02 09:25:49;;;;;;;3.65;0.40;;;19.10;99.90;;;;;;4851342;29;20129;-38
2022/07/02 09:28:16;;;;;;;1.77;0.30;;;19.10;99.90;;;;;;4829375;29;20092;-38
2022/07/02 09:30:42;;;;;;;2.97;0.40;;;19.20;99.90;;;;;;4853928;29;20130;-37
2022/07/02 09:33:30;;;;;;;3.95;0.52;;;19.20;99.90;;;;;;4840689;29;20057;-37
2022/07/02 09:36:00;;;;;;;5.50;0.40;;;19.30;99.90;;;;;;4824591;29;20129;-37
2022/07/02 09:38:26;;;;;;;1.92;0.50;;;19.30;99.90;;;;;;4821818;29;20102;-37
2022/07/02 09:40:58;;;;;;;3.20;0.40;;;19.40;99.90;;;;;;4839813;29;20050;-37
2022/07/02 09:43:27;;;;;;;4.93;0.65;;;19.40;99.90;;;;;;4834575;29;20079;-37
2022/07/02 09:45:53;;;;;;;2.33;0.55;;;19.50;99.90;;;;;;4839971;29;20605;-37
2022/07/02 09:48:19;;;;;;;2.38;0.50;;;19.60;99.90;;;;;;4822107;29;20058;-37
2022/07/02 09:50:44;;;;;;;0.95;0.20;;;19.60;99.90;;;;;;4818622;29;20616;-37
2022/07/02 09:53:12;;;;;;;2.80;0.30;;;19.70;99.90;;;;;;4834555;29;20133;-37
2022/07/02 09:55:37;;;;;;;3.03;0.30;;;19.80;99.90;;;;;;4836218;29;20124;-37
2022/07/02 09:58:05;;;;;;;3.22;0.43;;;19.90;99.90;;;;;;4819082;29;20079;-37
2022/07/02 10:00:42;;;;;;;3.63;0.30;;;19.90;99.90;;;;;;4835435;29;20089;-37
2022/07/02 10:03:07;;;;;;;1.33;0.20;;;19.90;99.90;;;;;;4834249;29;20060;-37
2022/07/02 10:05:33;;;;;;;3.33;0.60;;;19.90;99.90;;;;;;4820818;29;20049;-38
2022/07/02 10:08:04;;;;;;;4.82;0.40;;;19.90;99.90;;;;;;4819265;29;20092;-38
2022/07/02 10:10:35;;;;;;;3.25;0.40;;;19.90;99.90;;;;;;4834690;29;20050;-37
2022/07/02 10:13:01;;;;;;;4.95;0.30;;;20.00;99.90;;;;;;4834079;29;20129;-37
2022/07/02 10:15:32;;;;;;;2.35;0.20;;;20.10;99.90;;;;;;4835350;29;20132;-37
2022/07/02 10:18:00;;;;;;;2.08;0.28;;;20.20;99.90;;;;;;4822388;29;20064;-38
2022/07/02 10:20:28;;;;;;;1.45;0.22;;;20.10;99.90;;;;;;4851096;29;20057;-38
2022/07/02 10:22:59;;;;;;;1.90;0.40;;;20.20;99.90;;;;;;4840685;29;20056;-37
2022/07/02 10:25:24;;;;;;;1.40;0.38;;;20.20;99.90;;;;;;4828218;29;20057;-37
2022/07/02 10:27:51;;;;;;;0.70;0.20;;;20.20;99.90;;;;;;4831980;29;20069;-37
2022/07/02 10:30:21;;;;;;;1.13;0.10;;;20.20;99.90;;;;;;4844203;29;20501;-37
2022/07/02 10:33:24;;;;;;;1.88;0.17;;;20.20;99.90;;;;;;4840442;29;20057;-38
2022/07/02 10:35:50;;;;;;;1.67;0.10;;;20.20;99.90;;;;;;4853439;29;20669;-37
2022/07/02 10:38:30;;;;;;;2.05;0.20;;;20.20;99.90;;;;;;4834128;29;20105;-37
2022/07/02 10:40:57;;;;;;;1.48;0.20;;;20.20;99.90;;;;;;4837201;29;20072;-37
2022/07/02 10:43:23;;;;;;;0.90;0.20;;;20.30;99.90;;;;;;4848484;29;20090;-38
2022/07/02 10:45:48;;;;;;;2.35;0.30;;;20.50;99.90;;;;;;4850851;29;20050;-37
2022/07/02 10:48:15;;;;;;;3.83;0.35;;;20.50;99.90;;;;;;4828101;29;20137;-38
2022/07/02 10:50:47;;;;;;;2.13;0.30;;;20.50;99.90;;;;;;4843554;29;20497;-37
2022/07/02 10:53:13;;;;;;;1.15;0.30;;;20.50;99.90;;;;;;4853987;29;20076;-37
2022/07/02 10:55:41;;;;;;;1.52;0.20;;;20.60;99.90;;;;;;4850888;29;20482;-38
2022/07/02 10:58:08;;;;;;;1.38;0.22;;;20.60;99.90;;;;;;4831736;29;20053;-37
2022/07/02 11:00:35;;;;;;;1.15;0.30;;;20.60;99.90;;;;;;4854379;29;20458;-37
2022/07/02 11:03:19;;;;;;;1.55;0.20;;;20.60;99.90;;;;;;4853572;29;20513;-37
2022/07/02 11:05:56;;;;;;;1.23;0.10;;;20.80;99.90;;;;;;4853767;29;20061;-37
2022/07/02 11:08:48;;;;;;;2.17;0.20;;;20.80;99.90;;;;;;4838514;29;20132;-38
2022/07/02 11:11:42;;;;;;;1.52;0.28;;;20.80;99.90;;;;;;4843500;29;20774;-38
2022/07/02 11:14:10;;;;;;;1.02;0.10;;;20.90;99.90;;;;;;4847426;29;20052;-38
2022/07/02 11:16:43;;;;;;;2.83;0.20;;;20.90;99.90;;;;;;4831858;29;20109;-38
2022/07/02 11:19:17;;;;;;;2.90;0.10;;;21.00;99.90;;;;;;4820028;29;20050;-38
2022/07/02 11:21:44;;;;;;;0.63;0.10;;;21.00;99.90;;;;;;4847522;29;20049;-38
2022/07/02 11:24:10;;;;;;;1.30;0.10;;;21.10;99.90;;;;;;4851154;29;20050;-37
2022/07/02 11:26:40;;;;;;;0.63;0.10;;;21.20;99.90;;;;;;4820146;29;20077;-38
2022/07/02 11:29:06;;;;;;;1.33;0.10;;;21.10;99.90;;;;;;4835752;29;20058;-37
2022/07/02 11:31:36;;;;;;;0.55;0.10;;;21.10;99.90;;;;;;4842875;29;20733;-38
2022/07/02 11:34:03;;;;;;;0.93;0.20;;;21.10;99.90;;;;;;4849107;29;20466;-38
2022/07/02 11:36:29;;;;;;;1.15;0.10;;;21.20;99.90;;;;;;4841755;29;20987;-37
2022/07/02 11:38:55;;;;;;;1.27;0.00;;;21.30;99.10;;;;;;4851309;29;20136;-38
2022/07/02 11:41:24;;;;;;;3.60;0.10;;;21.40;99.90;;;;;;4854390;29;20081;-38
2022/07/02 11:43:56;;;;;;;0.50;0.00;;;21.50;99.90;;;;;;4855908;29;20054;-37
2022/07/02 11:46:27;;;;;;;2.08;0.10;;;21.40;99.30;;;;;;4843037;29;20088;-38
2022/07/02 11:48:54;;;;;;;1.15;0.20;;;21.40;98.50;;;;;;4821285;29;20053;-37
2022/07/02 11:51:20;;;;;;;1.05;0.20;;;21.50;98.50;;;;;;4839889;29;20092;-38
2022/07/02 11:54:00;;;;;;;2.38;0.25;;;21.60;97.80;;;;;;4849273;29;20148;-38
2022/07/02 11:56:27;;;;;;;3.05;0.20;;;21.60;97.70;;;;;;4838657;29;20045;-38
2022/07/02 11:58:53;;;;;;;1.52;0.20;;;21.80;98.80;;;;;;4837867;29;20053;-38
2022/07/02 12:01:29;;;;;;;1.70;0.17;;;21.90;98.90;;;;;;4840944;29;20063;-38
2022/07/02 12:04:03;;;;;;;0.93;0.10;;;21.90;98.20;;;;;;4845363;29;20061;-38
2022/07/02 12:06:32;;;;;;;1.20;0.10;;;21.90;97.60;;;;;;4828787;29;20642;-38
2022/07/02 12:08:59;;;;;;;1.30;0.20;;;22.00;95.90;;;;;;4844992;29;20076;-37
2022/07/02 12:11:26;;;;;;;0.70;0.10;;;22.00;96.60;;;;;;4858238;29;20061;-37
2022/07/02 12:13:53;;;;;;;1.00;0.10;;;22.00;96.50;;;;;;4858513;29;20121;-38
2022/07/02 12:16:21;;;;;;;1.30;0.20;;;22.00;96.80;;;;;;4834743;29;20424;-38
2022/07/02 12:18:59;;;;;;;1.00;0.10;;;22.00;98.20;;;;;;4853807;29;20119;-38
2022/07/02 12:21:34;;;;;;;3.28;0.30;;;22.00;98.40;;;;;;4842434;29;20069;-38
2022/07/02 12:24:00;;;;;;;0.57;0.10;;;22.10;99.20;;;;;;4858299;29;20050;-37
2022/07/02 12:26:27;;;;;;;2.05;0.17;;;22.20;98.40;;;;;;4830403;29;20057;-37
2022/07/02 12:32:07;;;;;;;2.83;0.10;;;22.40;98.40;;;;;;4840926;29;20057;-38
2022/07/02 12:34:44;;;;;;;2.05;0.22;;;22.50;97.90;;;;;;4854666;29;20613;-37
2022/07/02 12:37:28;;;;;;;0.90;0.20;;;22.40;97.10;;;;;;4825696;29;20654;-38
2022/07/02 12:40:13;;;;;;;2.92;0.22;;;22.50;97.60;;;;;;4840577;29;20481;-37
2022/07/02 12:42:49;;;;;;;0.85;0.10;;;22.50;97.50;;;;;;4844649;29;20060;-38
2022/07/02 12:45:22;;;;;;;2.70;0.20;;;22.50;97.40;;;;;;4858595;29;20057;-37
2022/07/02 12:47:58;;;;;;;0.88;0.28;;;22.60;98.70;;;;;;4842595;29;20050;-38
2022/07/02 12:50:25;;;;;;;1.65;0.10;;;22.60;98.70;;;;;;4858200;29;20114;-37
2022/07/02 12:52:54;;;;;;;1.20;0.20;;;22.70;98.90;;;;;;4849642;29;20042;-38
2022/07/02 12:55:30;;;;;;;0.65;0.10;;;22.80;98.20;;;;;;4853508;29;20089;-37
2022/07/02 12:58:01;;;;;;;2.70;0.30;;;22.90;98.30;;;;;;4842791;29;20076;-38